Time;durP1;ratioP1;P1;durP2;ratioP2;P2;SDS_P1;SDS_P2;PMS_P1;PMS_P2;Temp;Humidity;BMP_temperature;BMP_pressure;BME280_temperature;BME280_humidity;BME280_pressure;Samples;Min_cycle;Max_cycle;Signal;HPM_P1;HPM_P2
2022/12/08 00:02:00;;;;;;;;;41.00;32.50;;;;;8.66;56.61;100872.50;5097557;27;57465;-40
2022/12/08 00:04:25;;;;;;;;;38.00;31.25;;;;;8.66;56.59;100871.66;5099426;27;45893;-40
2022/12/08 00:09:40;;;;;;;;;32.50;24.00;;;;;8.67;56.63;100860.31;5088028;27;45324;-42
2022/12/08 00:12:09;;;;;;;;;31.50;26.75;;;;;8.66;56.69;100849.03;5080950;27;46307;-45
2022/12/08 00:14:37;;;;;;;;;41.00;33.00;;;;;8.67;56.55;100853.34;5083431;27;45364;-41
2022/12/08 00:17:04;;;;;;;;;35.75;28.75;;;;;8.67;56.50;100840.28;5076789;27;46147;-41
2022/12/08 00:19:30;;;;;;;;;39.00;30.50;;;;;8.65;56.45;100839.47;5081765;27;45653;-42
2022/12/08 00:21:55;;;;;;;;;33.75;30.00;;;;;8.65;56.54;100838.63;5080825;27;46051;-41
2022/12/08 00:24:22;;;;;;;;;30.50;21.50;;;;;8.63;56.54;100838.63;5080632;27;45366;-40
2022/12/08 00:26:48;;;;;;;;;34.25;28.25;;;;;8.57;56.62;100833.53;5073555;27;45505;-41
2022/12/08 00:29:13;;;;;;;;;31.50;29.50;;;;;8.51;56.78;100828.41;5080440;27;45414;-41
2022/12/08 00:31:39;;;;;;;;;26.25;22.25;;;;;8.49;56.84;100827.59;5091014;27;46356;-42
2022/12/08 00:34:04;;;;;;;;;38.00;29.00;;;;;8.47;56.81;100826.75;5079694;27;45471;-40
2022/12/08 00:36:30;;;;;;;;;44.50;29.00;;;;;8.45;56.94;100826.78;5070456;27;45341;-40
2022/12/08 00:38:56;;;;;;;;;36.75;29.50;;;;;8.43;56.87;100825.94;5081164;27;45484;-40
2022/12/08 00:44:10;;;;;;;;;44.50;33.00;;;;;8.41;57.16;100822.47;5085899;27;45512;-42
2022/12/08 00:46:36;;;;;;;;;42.25;32.75;;;;;8.43;57.13;100822.44;5074472;27;45422;-40
2022/12/08 00:49:03;;;;;;;;;29.75;28.00;;;;;8.44;57.27;100821.59;5065349;27;65940;-40
2022/12/08 00:51:28;;;;;;;;;41.25;31.00;;;;;8.44;57.18;100824.19;5069335;27;45531;-40
2022/12/08 00:53:54;;;;;;;;;35.75;30.25;;;;;8.43;57.05;100812.91;5082965;27;45283;-40
2022/12/08 00:56:19;;;;;;;;;38.25;32.00;;;;;8.44;57.49;100812.00;5079309;27;45323;-41
2022/12/08 00:58:44;;;;;;;;;41.75;30.00;;;;;8.45;57.17;100805.91;5076300;27;49918;-42
2022/12/08 01:01:11;;;;;;;;;46.00;32.25;;;;;8.48;57.19;100802.38;5069626;28;68000;-42
2022/12/08 01:03:36;;;;;;;;;42.00;31.00;;;;;8.48;57.22;100794.56;5073186;27;45405;-40
2022/12/08 01:06:03;;;;;;;;;38.25;31.50;;;;;8.49;57.24;100791.06;5059135;28;62492;-42
2022/12/08 01:08:28;;;;;;;;;41.75;33.00;;;;;8.51;57.27;100792.75;5075874;27;45296;-41
2022/12/08 01:10:54;;;;;;;;;37.25;27.25;;;;;8.56;57.20;100790.06;5080175;27;67980;-41
2022/12/08 01:13:19;;;;;;;;;34.50;31.00;;;;;8.57;57.03;100785.72;5076475;27;68179;-41
2022/12/08 01:15:44;;;;;;;;;36.75;29.50;;;;;8.61;57.18;100776.97;5069284;27;61871;-44
2022/12/08 01:18:10;;;;;;;;;40.50;33.25;;;;;8.62;57.33;100778.66;5077117;28;45429;-41
2022/12/08 01:20:35;;;;;;;;;46.00;33.00;;;;;8.65;57.09;100782.06;5078693;27;66537;-41
2022/12/08 01:23:00;;;;;;;;;34.00;30.50;;;;;8.68;57.12;100775.97;5079799;27;65797;-41
2022/12/08 01:25:26;;;;;;;;;39.75;33.25;;;;;8.70;57.05;100776.78;5078896;27;58960;-41
2022/12/08 01:27:52;;;;;;;;;44.25;33.25;;;;;8.71;57.08;100763.72;5076462;27;46350;-42
2022/12/08 01:30:18;;;;;;;;;48.00;33.75;;;;;8.72;57.06;100767.16;5080187;27;46163;-42
2022/12/08 01:32:43;;;;;;;;;55.50;37.00;;;;;8.71;56.93;100768.94;5080054;27;45345;-43
2022/12/08 01:35:09;;;;;;;;;48.00;37.00;;;;;8.73;57.12;100764.53;5072793;27;45685;-42
2022/12/08 01:37:34;;;;;;;;;46.50;39.00;;;;;8.76;57.19;100760.16;5075929;27;45252;-41
2022/12/08 01:39:59;;;;;;;;;48.25;35.50;;;;;8.78;57.05;100763.59;5079112;27;52153;-41
2022/12/08 01:42:25;;;;;;;;;50.25;39.00;;;;;8.82;57.20;100762.63;5076743;27;55015;-40
2022/12/08 01:44:56;;;;;;;;;49.00;39.00;;;;;8.83;57.27;100760.00;5075789;27;45355;-42
2022/12/08 01:47:24;;;;;;;;;57.25;42.50;;;;;8.85;57.12;100765.19;5076473;27;45335;-41
2022/12/08 01:49:50;;;;;;;;;55.50;41.00;;;;;8.86;57.19;100766.91;5079491;28;45416;-40
2022/12/08 01:52:28;;;;;;;;;50.75;38.75;;;;;8.86;56.90;100767.75;5078205;27;63355;-40
2022/12/08 01:55:02;;;;;;;;;51.00;38.75;;;;;8.84;57.16;100764.34;5080093;27;45521;-41
2022/12/08 01:57:35;;;;;;;;;48.75;38.00;;;;;8.81;57.19;100769.59;5088739;27;45490;-40
2022/12/08 02:00:07;;;;;;;;;47.50;37.25;;;;;8.80;57.25;100762.69;5085773;27;46316;-45
2022/12/08 02:02:41;;;;;;;;;51.25;37.00;;;;;8.83;57.01;100764.34;5072338;27;45499;-41
2022/12/08 02:05:07;;;;;;;;;50.00;38.75;;;;;8.85;57.19;100763.47;5064271;27;45430;-42
2022/12/08 02:07:32;;;;;;;;;53.00;40.25;;;;;8.87;57.19;100759.06;5080540;27;45517;-42
2022/12/08 02:09:58;;;;;;;;;55.25;42.50;;;;;8.89;57.41;100744.22;5079001;27;59902;-40
2022/12/08 02:12:23;;;;;;;;;51.75;39.75;;;;;8.90;57.39;100755.53;5078502;27;45519;-41
2022/12/08 02:14:49;;;;;;;;;55.25;41.25;;;;;8.92;56.94;100751.13;5079453;27;59469;-40
2022/12/08 02:17:46;;;;;;;;;55.75;41.25;;;;;8.91;57.04;100757.25;5093818;27;57391;-40
2022/12/08 02:20:12;;;;;;;;;58.00;42.00;;;;;8.92;57.07;100751.13;5066577;27;45348;-40
2022/12/08 02:22:49;;;;;;;;;54.00;37.67;;;;;8.91;57.09;100752.03;5077414;27;45360;-43
2022/12/08 02:25:23;;;;;;;;;52.75;39.25;;;;;8.92;57.13;100751.13;5065637;28;45395;-42
2022/12/08 02:28:10;;;;;;;;;54.50;39.25;;;;;8.93;57.08;100752.84;5077220;27;46105;-41
2022/12/08 02:31:10;;;;;;;;;53.75;36.25;;;;;8.93;56.68;100737.19;5073021;27;45861;-40
2022/12/08 02:33:54;;;;;;;;;51.25;38.50;;;;;8.92;56.96;100743.28;5071737;27;45896;-40
2022/12/08 02:36:37;;;;;;;;;57.50;39.00;;;;;8.87;56.92;100742.53;5066409;27;45425;-40
2022/12/08 02:39:17;;;;;;;;;53.00;37.25;;;;;8.86;56.92;100738.22;5078642;28;45555;-41
2022/12/08 02:42:09;;;;;;;;;44.25;35.50;;;;;8.84;56.96;100743.47;5060964;28;45558;-43
2022/12/08 02:44:57;;;;;;;;;51.50;37.75;;;;;8.81;56.88;100738.28;5093002;27;46070;-41
2022/12/08 02:47:24;;;;;;;;;41.25;35.25;;;;;8.78;57.16;100737.50;5074196;28;45311;-40
2022/12/08 02:49:49;;;;;;;;;46.50;36.00;;;;;8.78;56.77;100734.88;5093249;27;45256;-40
2022/12/08 02:52:17;;;;;;;;;51.00;39.50;;;;;8.74;56.80;100732.31;5076889;27;45207;-40
2022/12/08 02:54:46;;;;;;;;;52.50;33.75;;;;;8.69;56.80;100731.59;5081539;27;45487;-40
2022/12/08 02:57:24;;;;;;;;;45.75;33.50;;;;;8.62;56.88;100727.34;5076150;27;45421;-40
2022/12/08 03:00:16;;;;;;;;;49.25;36.25;;;;;8.58;57.12;100725.69;5077063;27;45367;-40
2022/12/08 03:02:44;;;;;;;;;41.50;34.00;;;;;8.51;56.88;100718.88;5069276;27;46041;-40
2022/12/08 03:05:09;;;;;;;;;49.00;36.00;;;;;8.47;57.03;100719.81;5071872;27;45318;-41
2022/12/08 03:07:42;;;;;;;;;39.33;31.00;;;;;8.47;57.01;100719.81;5068750;27;45380;-41
2022/12/08 03:10:12;;;;;;;;;38.75;33.75;;;;;8.47;56.97;100712.00;5078012;27;45415;-41
2022/12/08 03:12:43;;;;;;;;;45.50;34.75;;;;;8.47;56.85;100712.84;5077961;27;45439;-44
2022/12/08 03:15:12;;;;;;;;;37.50;32.00;;;;;8.46;56.86;100711.13;5077633;27;45596;-40
2022/12/08 03:17:40;;;;;;;;;46.25;36.50;;;;;8.47;56.91;100710.25;5077456;28;45736;-41
2022/12/08 03:20:10;;;;;;;;;41.50;35.75;;;;;8.47;56.81;100705.03;5077124;27;45520;-40
2022/12/08 03:22:37;;;;;;;;;48.50;38.00;;;;;8.42;56.81;100696.44;5076429;27;46028;-40
2022/12/08 03:25:03;;;;;;;;;51.50;39.50;;;;;8.38;56.93;100692.13;5072070;27;46011;-40
2022/12/08 03:27:30;;;;;;;;;48.75;39.00;;;;;8.32;56.87;100687.03;5071409;27;45537;-42
2022/12/08 03:29:57;;;;;;;;;23.00;11.50;;;;;8.27;56.92;100691.44;5079383;27;45371;-41
2022/12/08 03:32:27;;;;;;;;;51.25;36.00;;;;;8.24;56.91;100688.94;5075025;27;45736;-40
2022/12/08 03:34:53;;;;;;;;;51.25;37.00;;;;;8.20;56.96;100682.91;5070382;27;45896;-41
2022/12/08 03:37:19;;;;;;;;;50.75;39.00;;;;;8.15;57.00;100685.59;5072161;28;45431;-40
2022/12/08 03:39:45;;;;;;;;;45.00;30.75;;;;;8.15;57.06;100680.38;5077741;28;45381;-40
2022/12/08 03:42:10;;;;;;;;;47.75;36.50;;;;;8.13;57.32;100682.16;5084036;27;66867;-44
2022/12/08 03:44:36;;;;;;;;;50.25;37.50;;;;;8.12;57.10;100676.97;5077174;27;55257;-40
2022/12/08 03:47:01;;;;;;;;;54.50;38.75;;;;;8.09;57.27;100674.41;5073210;28;58654;-40
2022/12/08 03:49:26;;;;;;;;;50.25;34.75;;;;;8.05;57.28;100677.97;5078189;27;61879;-40
2022/12/08 03:51:52;;;;;;;;;53.75;38.75;;;;;8.01;57.17;100674.56;5078367;27;46140;-40
2022/12/08 03:54:17;;;;;;;;;54.25;40.00;;;;;7.94;57.35;100668.56;5078874;27;61123;-40
2022/12/08 03:56:42;;;;;;;;;51.50;37.25;;;;;7.94;57.34;100662.50;5072135;28;45285;-40
2022/12/08 03:59:09;;;;;;;;;43.50;36.00;;;;;7.88;57.32;100663.47;5075546;27;45556;-40
2022/12/08 04:01:34;;;;;;;;;48.50;34.00;;;;;7.83;57.28;100656.63;5076141;27;45437;-40
2022/12/08 04:03:59;;;;;;;;;44.25;33.75;;;;;7.82;57.39;100653.16;5076022;27;63062;-40
2022/12/08 04:06:25;;;;;;;;;47.50;35.75;;;;;7.82;57.54;100654.91;5074146;27;45299;-40
2022/12/08 04:08:50;;;;;;;;;46.75;35.50;;;;;7.82;57.42;100647.94;5074093;27;65663;-40
2022/12/08 04:11:17;;;;;;;;;49.50;36.50;;;;;7.84;57.54;100653.97;5070779;27;46260;-40
2022/12/08 04:13:42;;;;;;;;;48.50;34.25;;;;;7.87;57.48;100655.69;5078847;27;45516;-47
2022/12/08 04:16:16;;;;;;;;;45.00;34.25;;;;;7.86;57.54;100649.63;5064904;27;45319;-41
2022/12/08 04:18:42;;;;;;;;;49.50;35.25;;;;;7.86;57.39;100652.22;5077554;27;45348;-41
2022/12/08 04:21:07;;;;;;;;;53.75;37.00;;;;;7.82;57.46;100649.69;5075697;27;48081;-40
2022/12/08 04:23:33;;;;;;;;;45.75;33.25;;;;;7.79;57.56;100647.97;5085742;27;45642;-40
2022/12/08 04:25:58;;;;;;;;;48.00;36.50;;;;;7.76;57.49;100648.06;5076792;27;45319;-41
2022/12/08 04:28:23;;;;;;;;;51.00;36.50;;;;;7.72;57.53;100639.44;5074842;27;51427;-40
2022/12/08 04:30:49;;;;;;;;;43.50;36.25;;;;;7.75;57.92;100638.50;5073265;27;46936;-40
2022/12/08 04:33:14;;;;;;;;;48.75;34.00;;;;;7.77;57.82;100628.91;5079613;27;45303;-40
2022/12/08 04:35:39;;;;;;;;;45.25;34.25;;;;;7.81;57.79;100628.00;5076604;27;52432;-42
2022/12/08 04:38:05;;;;;;;;;46.00;32.00;;;;;7.84;57.69;100627.94;5092009;27;45432;-41
2022/12/08 04:40:30;;;;;;;;;46.75;34.50;;;;;7.86;57.46;100631.38;5074326;27;46188;-42
2022/12/08 04:42:56;;;;;;;;;36.75;29.00;;;;;7.84;57.41;100625.31;5081275;27;45295;-41
2022/12/08 04:45:21;;;;;;;;;38.00;33.50;;;;;7.78;57.47;100621.09;5070514;27;53321;-41
2022/12/08 04:47:46;;;;;;;;;37.75;28.50;;;;;7.74;57.49;100622.03;5076078;27;60251;-41
2022/12/08 04:50:12;;;;;;;;;42.25;34.25;;;;;7.70;57.30;100619.50;5079838;27;45477;-43
2022/12/08 04:52:38;;;;;;;;;45.25;33.50;;;;;7.66;57.36;100610.88;5077089;27;46704;-43
2022/12/08 04:55:03;;;;;;;;;42.50;33.25;;;;;7.66;57.48;100613.47;5074661;27;45480;-42
2022/12/08 04:57:29;;;;;;;;;46.25;29.75;;;;;7.63;57.34;100607.47;5079369;27;45386;-42
2022/12/08 04:59:54;;;;;;;;;53.00;35.25;;;;;7.62;57.54;100605.75;5078253;27;62847;-42
2022/12/08 05:02:19;;;;;;;;;43.50;34.50;;;;;7.60;57.47;100601.44;5077784;27;45242;-43
2022/12/08 05:04:45;;;;;;;;;42.00;32.75;;;;;7.64;57.55;100596.16;5067228;27;53436;-41
2022/12/08 05:07:10;;;;;;;;;36.50;29.00;;;;;7.66;57.48;100595.25;5077965;27;46392;-43
2022/12/08 05:09:35;;;;;;;;;43.75;34.75;;;;;7.69;57.54;100599.56;5080728;27;60335;-40
2022/12/08 05:12:01;;;;;;;;;51.25;35.25;;;;;7.70;57.47;100602.16;5089709;27;61667;-41
2022/12/08 05:14:26;;;;;;;;;46.00;33.50;;;;;7.73;57.41;100607.28;5078975;27;45391;-41
2022/12/08 05:16:52;;;;;;;;;37.75;28.75;;;;;7.73;57.30;100602.06;5078222;27;60384;-41
2022/12/08 05:19:17;;;;;;;;;46.00;34.50;;;;;7.78;57.47;100602.00;5080999;27;47095;-43
2022/12/08 05:21:43;;;;;;;;;46.75;29.00;;;;;7.85;57.45;100600.16;5079715;27;66682;-44
2022/12/08 05:24:08;;;;;;;;;46.25;33.50;;;;;7.87;57.33;100593.16;5087901;27;45617;-39
2022/12/08 05:26:33;;;;;;;;;42.00;33.00;;;;;7.88;57.17;100597.47;5081937;27;45252;-42
2022/12/08 05:28:59;;;;;;;;;48.75;35.00;;;;;7.91;57.16;100597.41;5072736;27;66938;-39
2022/12/08 05:31:24;;;;;;;;;51.50;35.00;;;;;7.95;57.03;100588.66;5075847;27;63266;-42
2022/12/08 05:33:52;;;;;;;;;42.75;31.00;;;;;7.97;57.07;100586.91;5085507;27;45359;-40
2022/12/08 05:36:18;;;;;;;;;42.25;33.25;;;;;7.97;57.01;100587.75;5068136;27;45356;-41
2022/12/08 05:38:44;;;;;;;;;43.00;32.50;;;;;7.98;56.99;100592.09;5068514;28;45945;-41
2022/12/08 05:41:13;;;;;;;;;46.25;33.25;;;;;8.02;56.96;100586.78;5077557;28;45792;-40
2022/12/08 05:43:38;;;;;;;;;48.50;34.25;;;;;7.95;56.97;100581.72;5076082;27;45407;-40
2022/12/08 05:46:04;;;;;;;;;53.00;37.25;;;;;8.00;57.13;100594.63;5078566;27;66801;-41
2022/12/08 05:48:29;;;;;;;;;46.50;33.00;;;;;8.02;57.21;100584.19;5077895;27;47289;-40
2022/12/08 05:50:55;;;;;;;;;50.75;34.50;;;;;8.02;57.16;100589.41;5079218;27;66140;-39
2022/12/08 05:53:20;;;;;;;;;37.00;33.25;;;;;8.01;57.14;100596.38;5080830;27;45316;-39
2022/12/08 05:55:46;;;;;;;;;38.00;31.50;;;;;8.01;57.11;100595.53;5079069;27;57487;-40
2022/12/08 05:58:17;;;;;;;;;37.75;32.75;;;;;7.98;57.20;100594.69;5079826;27;45461;-39
2022/12/08 06:00:43;;;;;;;;;49.00;35.25;;;;;7.97;57.25;100595.56;5077267;27;45940;-39
2022/12/08 06:03:12;;;;;;;;;50.50;34.75;;;;;7.96;57.30;100596.44;5079053;27;45503;-40
2022/12/08 06:05:40;;;;;;;;;47.25;34.00;;;;;7.95;57.18;100597.34;5077957;28;45540;-40
2022/12/08 06:08:05;;;;;;;;;39.50;32.25;;;;;7.93;57.14;100587.81;5079208;27;45308;-40
2022/12/08 06:10:30;;;;;;;;;43.25;34.00;;;;;7.87;57.25;100588.78;5078374;28;45346;-39
2022/12/08 06:12:56;;;;;;;;;50.25;35.50;;;;;7.86;57.17;100587.09;5077287;27;50568;-40
2022/12/08 06:15:21;;;;;;;;;43.50;32.75;;;;;7.86;57.52;100584.50;5077185;28;61960;-39
2022/12/08 06:17:46;;;;;;;;;45.50;34.50;;;;;7.85;57.31;100581.91;5078641;27;45498;-39
2022/12/08 06:20:12;;;;;;;;;50.25;34.25;;;;;7.80;57.31;100576.78;5079210;27;58900;-41
2022/12/08 06:22:37;;;;;;;;;40.50;27.75;;;;;7.82;57.33;100579.34;5076734;27;57281;-40
2022/12/08 06:25:03;;;;;;;;;50.75;32.75;;;;;7.81;57.44;100581.09;5088726;27;61325;-41
2022/12/08 06:27:29;;;;;;;;;40.00;30.75;;;;;7.78;57.27;100581.16;5091344;27;46674;-40
2022/12/08 06:29:54;;;;;;;;;56.50;38.50;;;;;7.73;57.34;100582.97;5095767;27;45323;-40
2022/12/08 06:32:19;;;;;;;;;45.50;35.50;;;;;7.69;57.35;100576.97;5073261;27;47221;-40
2022/12/08 06:34:45;;;;;;;;;43.75;33.25;;;;;7.58;57.34;100578.91;5077769;27;45685;-40
2022/12/08 06:37:10;;;;;;;;;47.75;31.00;;;;;7.50;57.63;100579.03;5077739;27;63291;-40
2022/12/08 06:39:36;;;;;;;;;48.00;33.00;;;;;7.46;57.57;100573.91;5078893;28;45197;-40
2022/12/08 06:44:45;;;;;;;;;39.25;30.00;;;;;7.37;57.65;100570.56;5075161;27;45421;-40
2022/12/08 06:47:11;;;;;;;;;41.50;30.00;;;;;7.35;57.68;100574.09;5072375;27;46291;-40
2022/12/08 06:49:36;;;;;;;;;30.75;24.75;;;;;7.31;57.64;100580.22;5077847;27;48950;-39
2022/12/08 06:52:01;;;;;;;;;34.75;27.00;;;;;7.25;57.96;100575.97;5071026;27;45564;-41
2022/12/08 06:54:27;;;;;;;;;36.50;24.50;;;;;7.28;57.83;100572.44;5079058;27;45665;-40
2022/12/08 06:56:52;;;;;;;;;37.50;24.00;;;;;7.27;57.79;100570.75;5075646;27;56029;-39
2022/12/08 06:59:18;;;;;;;;;32.00;20.25;;;;;7.25;57.78;100568.16;5065056;27;68326;-39
2022/12/08 07:01:44;;;;;;;;;23.50;18.75;;;;;7.25;57.70;100562.09;5064474;27;45597;-40
2022/12/08 07:04:09;;;;;;;;;36.50;26.25;;;;;7.24;57.71;100571.63;5073287;27;45551;-39
2022/12/08 07:06:34;;;;;;;;;28.50;24.25;;;;;7.22;57.68;100568.19;5074613;28;54697;-39
2022/12/08 07:09:00;;;;;;;;;25.75;21.75;;;;;7.21;57.73;100571.69;5074285;28;50379;-39
2022/12/08 07:11:25;;;;;;;;;30.25;21.00;;;;;7.20;57.69;100564.75;5079372;27;45218;-40
2022/12/08 07:13:51;;;;;;;;;25.50;20.75;;;;;7.22;57.83;100563.00;5075096;27;45623;-40
2022/12/08 07:16:16;;;;;;;;;31.25;23.25;;;;;7.22;57.78;100565.59;5059389;28;50143;-41
2022/12/08 07:18:42;;;;;;;;;32.00;23.25;;;;;7.24;57.88;100561.22;5067517;28;45458;-42
2022/12/08 07:21:10;;;;;;;;;35.75;24.00;;;;;7.25;57.82;100560.34;5077175;27;45472;-41
2022/12/08 07:23:36;;;;;;;;;32.00;25.00;;;;;7.29;57.91;100563.75;5088924;27;45541;-41
2022/12/08 07:26:03;;;;;;;;;34.50;25.75;;;;;7.34;57.84;100559.34;5070920;27;45422;-41
2022/12/08 07:28:34;;;;;;;;;34.75;26.75;;;;;7.35;57.79;100556.72;5075357;27;45821;-41
2022/12/08 07:30:59;;;;;;;;;35.75;28.75;;;;;7.40;57.71;100557.50;5079802;27;45394;-44
2022/12/08 07:33:25;;;;;;;;;31.00;27.25;;;;;7.40;57.41;100560.09;5071225;27;46272;-42
2022/12/08 07:35:58;;;;;;;;;37.25;27.75;;;;;7.43;57.53;100568.75;5075381;27;46131;-43
2022/12/08 07:38:24;;;;;;;;;42.25;31.75;;;;;7.47;57.73;100567.81;5077471;27;45715;-44
2022/12/08 07:40:50;;;;;;;;;29.25;24.50;;;;;7.49;57.54;100563.41;5076730;28;45434;-43
2022/12/08 07:43:16;;;;;;;;;42.00;28.25;;;;;7.49;57.39;100579.94;5081018;27;45438;-41
2022/12/08 07:45:41;;;;;;;;;43.50;34.25;;;;;7.46;57.41;100573.91;5075358;27;45427;-42
2022/12/08 07:48:06;;;;;;;;;41.75;32.00;;;;;7.45;57.45;100572.19;5077401;27;54287;-42
2022/12/08 07:50:32;;;;;;;;;41.75;29.50;;;;;7.42;57.36;100573.09;5064575;27;61902;-42
2022/12/08 07:52:58;;;;;;;;;38.25;32.00;;;;;7.43;57.52;100567.00;5069891;27;45344;-42
2022/12/08 07:55:24;;;;;;;;;33.75;28.50;;;;;7.45;57.45;100559.16;5061762;28;45441;-45
2022/12/08 07:57:50;;;;;;;;;25.75;24.25;;;;;7.48;57.61;100565.16;5062737;28;45409;-43
2022/12/08 08:00:16;;;;;;;;;37.75;28.00;;;;;7.53;57.44;100558.16;5066859;28;45320;-43
2022/12/08 08:02:42;;;;;;;;;34.75;28.50;;;;;7.55;57.37;100552.91;5066815;27;45828;-41
2022/12/08 08:05:08;;;;;;;;;44.75;33.50;;;;;7.60;57.55;100559.75;5069124;27;45434;-42
2022/12/08 08:07:34;;;;;;;;;36.75;30.50;;;;;7.63;57.51;100556.22;5080859;27;45414;-41
2022/12/08 08:09:59;;;;;;;;;34.75;30.25;;;;;7.66;57.59;100555.31;5073123;27;45320;-42
2022/12/08 08:12:25;;;;;;;;;35.75;29.25;;;;;7.66;57.35;100552.72;5069792;27;47157;-42
2022/12/08 08:14:50;;;;;;;;;44.00;32.75;;;;;7.66;57.27;100555.31;5072879;27;45461;-44
2022/12/08 08:17:15;;;;;;;;;36.25;29.25;;;;;7.68;57.28;100549.19;5062965;28;45386;-41
2022/12/08 08:19:41;;;;;;;;;37.50;33.75;;;;;7.72;57.25;100550.00;5076842;28;45327;-42
2022/12/08 08:22:06;;;;;;;;;35.50;29.50;;;;;7.73;57.29;100541.31;5072157;27;45364;-42
2022/12/08 08:24:32;;;;;;;;;39.50;30.50;;;;;7.80;57.23;100542.91;5081630;27;45522;-41
2022/12/08 08:26:57;;;;;;;;;46.50;29.25;;;;;7.83;56.83;100545.47;5074008;27;50018;-41
2022/12/08 08:29:23;;;;;;;;;36.00;32.75;;;;;7.85;57.01;100541.06;5075209;28;45610;-41
2022/12/08 08:31:49;;;;;;;;;37.25;28.75;;;;;7.87;56.87;100541.06;5071524;27;46547;-49
2022/12/08 08:34:14;;;;;;;;;33.25;28.25;;;;;7.86;56.76;100537.59;5077597;27;46211;-43
2022/12/08 08:36:40;;;;;;;;;34.75;28.25;;;;;7.89;56.70;100540.13;5075211;28;45394;-42
2022/12/08 08:39:06;;;;;;;;;42.25;29.50;;;;;7.93;56.46;100539.19;5066030;27;45431;-42
2022/12/08 08:41:31;;;;;;;;;34.50;29.25;;;;;7.96;56.72;100536.50;5069998;27;45535;-41
2022/12/08 08:43:57;;;;;;;;;36.75;28.25;;;;;7.94;56.53;100535.69;5068646;27;45857;-40
2022/12/08 08:46:22;;;;;;;;;35.25;29.50;;;;;7.88;56.43;100522.78;5087826;27;45517;-41
2022/12/08 08:48:48;;;;;;;;;36.00;28.25;;;;;7.92;56.57;100521.84;5071753;27;45364;-43
2022/12/08 08:51:14;;;;;;;;;41.25;29.00;;;;;7.94;56.34;100521.81;5088757;27;45503;-42
2022/12/08 08:53:40;;;;;;;;;31.00;28.50;;;;;7.98;56.33;100523.47;5072300;27;46917;-41
2022/12/08 08:56:13;;;;;;;;;46.75;29.75;;;;;8.00;56.34;100524.28;5070966;27;46113;-42
2022/12/08 08:58:39;;;;;;;;;37.75;29.75;;;;;8.03;56.13;100529.44;5076067;27;45362;-42
2022/12/08 09:01:04;;;;;;;;;31.75;27.50;;;;;8.05;56.16;100527.66;5065226;27;45422;-42
2022/12/08 09:03:29;;;;;;;;;41.00;30.25;;;;;8.04;56.08;100520.75;5070102;27;46695;-44
2022/12/08 09:05:56;;;;;;;;;40.50;28.00;;;;;8.06;55.87;100523.31;5076596;27;57805;-42
2022/12/08 09:08:22;;;;;;;;;39.50;31.00;;;;;8.09;55.90;100523.25;5071709;28;45296;-42
2022/12/08 09:10:47;;;;;;;;;37.75;30.00;;;;;8.11;56.20;100518.84;5076823;27;45547;-44
2022/12/08 09:13:12;;;;;;;;;39.25;28.75;;;;;8.10;55.97;100518.00;5068795;27;46052;-42
2022/12/08 09:15:38;;;;;;;;;40.25;27.75;;;;;8.11;55.93;100514.50;5077484;28;50267;-42
2022/12/08 09:18:05;;;;;;;;;34.25;28.50;;;;;8.13;55.57;100517.94;5071399;27;45397;-43
2022/12/08 09:20:31;;;;;;;;;40.25;27.75;;;;;8.12;55.92;100521.44;5062354;27;46403;-45
2022/12/08 09:22:57;;;;;;;;;32.25;27.25;;;;;8.08;55.63;100519.78;5097268;27;47325;-42
2022/12/08 09:25:22;;;;;;;;;38.25;27.00;;;;;8.07;55.70;100522.41;5077322;28;45581;-43
2022/12/08 09:27:47;;;;;;;;;32.00;29.00;;;;;8.09;55.77;100521.50;5078397;27;45338;-44
2022/12/08 09:30:13;;;;;;;;;33.75;27.25;;;;;8.10;55.57;100518.00;5074963;27;45435;-42
2022/12/08 09:32:39;;;;;;;;;32.00;27.50;;;;;8.13;55.56;100522.31;5073996;27;45526;-42
2022/12/08 09:35:04;;;;;;;;;30.75;24.50;;;;;8.12;55.54;100524.03;5072390;27;45353;-44
2022/12/08 09:37:30;;;;;;;;;39.25;30.50;;;;;8.10;55.55;100517.16;5076177;27;45414;-42
2022/12/08 09:39:55;;;;;;;;;33.75;22.50;;;;;8.11;55.48;100516.25;5074249;28;51401;-43
2022/12/08 09:42:39;;;;;;;;;31.25;27.25;;;;;8.09;55.31;100518.91;5075834;27;45351;-41
2022/12/08 09:45:11;;;;;;;;;30.25;25.25;;;;;8.09;55.38;100515.41;5072217;27;45355;-41
2022/12/08 09:48:11;;;;;;;;;33.25;23.00;;;;;8.11;55.22;100519.72;5072418;27;45481;-41
2022/12/08 09:50:52;;;;;;;;;33.75;26.00;;;;;8.14;55.52;100522.28;5077916;27;45200;-41
2022/12/08 09:53:22;;;;;;;;;31.75;26.75;;;;;8.16;55.39;100514.41;5069390;28;45523;-45
2022/12/08 09:55:59;;;;;;;;;33.50;24.50;;;;;8.18;55.20;100502.22;5079149;28;45670;-42
2022/12/08 09:58:31;;;;;;;;;35.00;26.50;;;;;8.17;54.99;100501.34;5065856;28;45302;-41
2022/12/08 10:00:57;;;;;;;;;34.25;24.25;;;;;8.17;55.21;100498.72;5092204;27;45586;-41
2022/12/08 10:03:26;;;;;;;;;32.00;28.75;;;;;8.14;54.90;100492.72;5075783;27;46174;-41
2022/12/08 10:06:10;;;;;;;;;27.75;22.75;;;;;8.15;55.05;100486.63;5071344;27;45971;-41
2022/12/08 10:08:42;;;;;;;;;33.75;22.50;;;;;8.20;54.93;100486.53;5076185;27;46216;-41
2022/12/08 10:11:23;;;;;;;;;37.50;27.75;;;;;8.22;54.76;100490.84;5074595;28;45360;-41
2022/12/08 10:14:12;;;;;;;;;32.00;27.25;;;;;8.22;55.02;100492.59;5070995;28;46909;-40
2022/12/08 10:16:40;;;;;;;;;34.50;26.75;;;;;8.22;54.78;100489.97;5078699;27;45849;-41
2022/12/08 10:19:21;;;;;;;;;26.00;23.75;;;;;8.23;54.87;100487.31;5076066;27;45450;-41
2022/12/08 10:21:47;;;;;;;;;28.25;23.00;;;;;8.26;54.84;100486.41;5070606;27;45515;-41
2022/12/08 10:24:31;;;;;;;;;34.75;26.50;;;;;8.28;54.45;100484.63;5075355;27;45442;-42
2022/12/08 10:26:57;;;;;;;;;31.00;26.75;;;;;8.29;54.66;100479.38;5072886;27;45441;-43
2022/12/08 10:29:22;;;;;;;;;27.75;25.00;;;;;8.29;54.81;100479.38;5071620;27;55969;-41
2022/12/08 10:31:47;;;;;;;;;29.25;26.50;;;;;8.28;54.80;100472.44;5078709;27;45563;-43
2022/12/08 10:34:16;;;;;;;;;29.25;22.25;;;;;8.24;54.68;100462.13;5075349;27;45365;-43
2022/12/08 10:36:47;;;;;;;;;27.25;24.50;;;;;8.26;54.56;100461.19;5079121;27;45434;-41
2022/12/08 10:39:39;;;;;;;;;32.75;25.50;;;;;8.29;54.75;100455.91;5067573;27;45407;-41
2022/12/08 10:42:16;;;;;;;;;31.25;24.75;;;;;8.32;54.58;100448.03;5077567;27;45497;-43
2022/12/08 10:45:14;;;;;;;;;29.50;25.75;;;;;8.34;54.52;100445.41;5078091;27;45412;-42
2022/12/08 10:47:41;;;;;;;;;34.00;30.50;;;;;8.32;54.45;100445.44;5076106;27;45423;-41
2022/12/08 10:50:17;;;;;;;;;37.25;25.75;;;;;8.33;54.44;100446.28;5077691;27;45390;-43
2022/12/08 10:52:42;;;;;;;;;26.25;22.25;;;;;8.33;54.51;100447.13;5079728;27;45276;-42
2022/12/08 10:55:18;;;;;;;;;33.00;28.75;;;;;8.33;54.44;100438.44;5066995;27;46087;-42
2022/12/08 10:57:44;;;;;;;;;36.50;30.00;;;;;8.34;54.33;100438.41;5069565;28;45760;-41
2022/12/08 11:00:15;;;;;;;;;34.75;30.25;;;;;8.36;54.32;100431.41;5076330;27;45421;-43
2022/12/08 11:02:58;;;;;;;;;32.25;26.25;;;;;8.40;54.34;100434.81;5076868;27;45503;-41
2022/12/08 11:05:28;;;;;;;;;43.50;33.25;;;;;8.40;54.18;100437.41;5078064;27;45475;-43
2022/12/08 11:07:54;;;;;;;;;33.00;29.75;;;;;8.41;53.97;100435.66;5077076;27;45833;-41
2022/12/08 11:10:28;;;;;;;;;35.75;30.25;;;;;8.44;54.30;100422.59;5095532;27;45469;-41
2022/12/08 11:12:54;;;;;;;;;36.75;29.75;;;;;8.42;54.31;100411.31;5075334;27;46268;-41
2022/12/08 11:15:19;;;;;;;;;28.00;23.50;;;;;8.42;54.09;100411.31;5092030;27;46154;-43
2022/12/08 11:17:48;;;;;;;;;48.50;34.50;;;;;8.41;54.12;100407.84;5076403;27;58330;-41
2022/12/08 11:20:13;;;;;;;;;50.50;36.00;;;;;8.41;54.05;100412.19;5087358;27;45493;-43
2022/12/08 11:22:46;;;;;;;;;50.67;32.33;;;;;8.39;54.06;100403.56;5077322;27;45309;-41
2022/12/08 11:25:18;;;;;;;;;34.50;32.50;;;;;8.41;54.26;100402.63;5068365;27;45584;-41
2022/12/08 11:27:45;;;;;;;;;34.50;28.25;;;;;8.43;53.99;100398.28;5077082;28;45428;-41
2022/12/08 11:30:20;;;;;;;;;50.00;37.75;;;;;8.44;54.12;100396.53;5067945;27;45537;-42